Weather History for Walhalla, ND

Change the Weather History Date:

Saturday, November 2, 2013

  Actual Average (KGAF) Record (KGAF)
Temperature  
Mean Temperature 38 °F -  
Max Temperature 51 °F 44 °F 73 °F (1978)
Min Temperature 26 °F 26 °F -3 °F (1951)
Degree Days  
Heating Degree Days 26    
Moisture  
Dew Point 33 °F    
Average Humidity 80    
Maximum Humidity 100    
Minimum Humidity 47    
Precipitation  
Precipitation 0.00 in - - ()
Sea Level Pressure  
Sea Level Pressure 29.94 in    
Wind  
Wind Speed 5 mph (WSW)    
Max Wind Speed 8 mph    
Max Gust Speed -    
Visibility 10 miles    
Events      
Averages and records for this station are not official NWS values.
T = Trace of Precipitation, MM = Missing Value Source: NWS Daily Summary

Daily Weather History Graph

Daily Weather History Graph

Search for Another Location

Airport:

Trip Planner

Search our weather history database for the weather conditions in past years. The results will help you decide how hot, cold, wet, or windy it might be!

Date:

Astronomy

Nov. 02, 2013 Rise Set
Actual Time 8:20 AM CDT 6:08 PM CDT
Civil Twilight 7:47 AM CDT 6:42 PM CDT
Nautical Twilight 7:10 AM CDT 7:19 PM CDT
Astronomical Twilight 6:33 AM CDT 7:56 PM CDT
Moon 7:16 AM CDT (11/2) 5:42 PM CDT (11/2)
Length of Visible Light 10h 54m
Length of Day
9h 48m
Waning Crescent, 1% of the Moon is Illuminated
Nov 2
Waning Crescent
Nov 3
New
Nov 9
First Quarter
Nov 17
Full
Nov 25
Last Quarter

Hourly Weather History & Observations

Time (CDT) Temp. Windchill Dew Point Humidity Pressure Visibility Wind Dir Wind Speed Gust Speed Precip Events Conditions
12:15 AM 39.2 °F 35.9 °F 35.6 °F 87% 29.89 in 10.0 mi WNW 4.6 mph - N/A   Overcast
12:35 AM 39.2 °F 35.9 °F 35.6 °F 87% 29.90 in 10.0 mi WNW 4.6 mph - N/A   Overcast
12:55 AM 39.2 °F 35.9 °F 35.6 °F 87% 29.90 in 10.0 mi WNW 4.6 mph - N/A   Overcast
1:15 AM 39.2 °F 33.6 °F 35.6 °F 87% 29.91 in 10.0 mi WNW 8.1 mph - N/A   Overcast
1:35 AM 39.2 °F 34.2 °F 35.6 °F 87% 29.92 in 10.0 mi WNW 6.9 mph - N/A   Overcast
1:55 AM 35.6 °F 30.7 °F 33.8 °F 93% 29.92 in 10.0 mi WNW 5.8 mph - N/A   Scattered Clouds
2:15 AM 37.4 °F 32.8 °F 32.0 °F 81% 29.92 in 10.0 mi WNW 5.8 mph - N/A   Clear
2:35 AM 35.6 °F 31.7 °F 32.0 °F 87% 29.92 in 10.0 mi West 4.6 mph - N/A   Scattered Clouds
2:55 AM 35.6 °F 31.7 °F 33.8 °F 93% 29.93 in 10.0 mi WNW 4.6 mph - N/A   Overcast
3:15 AM 33.8 °F 28.6 °F 33.8 °F 100% 29.93 in 10.0 mi WNW 5.8 mph - N/A   Overcast
3:35 AM 33.8 °F 28.6 °F 33.8 °F 100% 29.94 in 10.0 mi WNW 5.8 mph - N/A   Mostly Cloudy
3:55 AM 33.8 °F 28.6 °F 33.8 °F 100% 29.94 in 10.0 mi WNW 5.8 mph - N/A   Clear
4:15 AM 35.6 °F 29.9 °F 35.6 °F 100% 29.94 in 10.0 mi WNW 6.9 mph - N/A   Clear
4:35 AM 35.6 °F 30.7 °F 35.6 °F 100% 29.95 in 10.0 mi NW 5.8 mph - N/A   Clear
4:55 AM 35.6 °F 30.7 °F 35.6 °F 100% 29.95 in 10.0 mi WNW 5.8 mph - N/A   Clear
5:15 AM 33.8 °F 28.6 °F 33.8 °F 100% 29.95 in 10.0 mi West 5.8 mph - N/A   Clear
5:35 AM 32.0 °F 28.7 °F 32.0 °F 100% 29.96 in 10.0 mi West 3.5 mph - N/A   Clear
5:55 AM 32.0 °F 28.7 °F 32.0 °F 100% 29.96 in 10.0 mi West 3.5 mph - N/A   Clear
6:15 AM 32.0 °F 28.7 °F 32.0 °F 100% 29.96 in 10.0 mi West 3.5 mph - N/A   Clear
6:35 AM 32.0 °F 28.7 °F 32.0 °F 100% 29.96 in 10.0 mi West 3.5 mph - N/A   Clear
6:55 AM 32.0 °F 27.5 °F 32.0 °F 100% 29.96 in 10.0 mi West 4.6 mph - N/A   Partly Cloudy
7:15 AM 32.0 °F 27.5 °F 32.0 °F 100% 29.96 in 10.0 mi West 4.6 mph - N/A   Clear
7:35 AM 32.0 °F 26.4 °F 32.0 °F 100% 29.96 in 10.0 mi West 5.8 mph - N/A   Clear
7:55 AM 28.4 °F - 28.4 °F 100% 29.96 in 10.0 mi Calm Calm - N/A   Clear
8:15 AM 28.4 °F - 28.4 °F 100% 29.97 in 10.0 mi Calm Calm - N/A   Clear
8:35 AM 26.6 °F 22.6 °F 26.6 °F 100% 29.97 in 10.0 mi WSW 3.5 mph - N/A   Clear
8:55 AM 30.2 °F 25.4 °F 30.2 °F 100% 29.97 in 10.0 mi West 4.6 mph - N/A   Clear
9:15 AM 32.0 °F 28.7 °F 32.0 °F 100% 29.98 in 10.0 mi WSW 3.5 mph - N/A   Clear
9:35 AM 32.0 °F 28.7 °F 32.0 °F 100% 29.98 in 10.0 mi WSW 3.5 mph - N/A   Clear
9:55 AM 32.0 °F 27.5 °F 32.0 °F 100% 29.99 in 10.0 mi West 4.6 mph - N/A   Clear
10:15 AM 35.6 °F - 35.6 °F 100% 29.99 in 10.0 mi Calm Calm - N/A   Clear
10:35 AM 37.4 °F 33.8 °F 37.4 °F 100% 30.00 in 10.0 mi West 4.6 mph - N/A   Clear
10:55 AM 39.2 °F 35.9 °F 37.4 °F 93% 30.00 in 10.0 mi West 4.6 mph - N/A   Scattered Clouds
12:15 PM 46.4 °F 42.4 °F 35.6 °F 66% 29.99 in 10.0 mi WNW 8.1 mph - N/A   Clear
12:35 PM 46.4 °F 42.4 °F 33.8 °F 62% 29.98 in 10.0 mi West 8.1 mph - N/A   Clear
12:55 PM 48.2 °F - 33.8 °F 58% 29.98 in 10.0 mi West 6.9 mph - N/A   Clear
1:15 PM 48.2 °F - 32.0 °F 54% 29.98 in 10.0 mi WSW 4.6 mph - N/A   Clear
1:35 PM 48.2 °F - 32.0 °F 54% 29.97 in 10.0 mi WNW 3.5 mph - N/A   Clear
1:55 PM 50.0 °F - 32.0 °F 50% 29.97 in 10.0 mi West 5.8 mph - N/A   Clear
2:15 PM 50.0 °F - 32.0 °F 50% 29.96 in 10.0 mi WNW 3.5 mph - N/A   Partly Cloudy
2:35 PM 50.0 °F - 32.0 °F 50% 29.95 in 10.0 mi West 3.5 mph - N/A   Mostly Cloudy
2:55 PM 50.0 °F - 32.0 °F 50% 29.95 in 10.0 mi SW 3.5 mph - N/A   Mostly Cloudy
3:15 PM 51.8 °F - 32.0 °F 47% 29.94 in 10.0 mi SW 5.8 mph - N/A   Mostly Cloudy
3:35 PM 50.0 °F - 32.0 °F 50% 29.94 in 10.0 mi SW 4.6 mph - N/A   Scattered Clouds
3:55 PM 50.0 °F - 32.0 °F 50% 29.94 in 10.0 mi WSW 4.6 mph - N/A   Scattered Clouds
4:15 PM 50.0 °F - 33.8 °F 54% 29.94 in 10.0 mi Calm Calm - N/A   Unknown
4:35 PM 50.0 °F - 33.8 °F 54% 29.94 in 10.0 mi SSW 3.5 mph - N/A   Mostly Cloudy
4:55 PM 50.0 °F - 35.6 °F 58% 29.93 in 10.0 mi SSE 4.6 mph - N/A   Mostly Cloudy
5:15 PM 50.0 °F - 33.8 °F 54% 29.93 in 10.0 mi SE 5.8 mph - N/A   Mostly Cloudy
5:35 PM 50.0 °F - 33.8 °F 54% 29.92 in 10.0 mi SSW 5.8 mph - N/A   Mostly Cloudy
5:55 PM 48.2 °F - 32.0 °F 54% 29.92 in 10.0 mi South 5.8 mph - N/A   Overcast
6:15 PM 46.4 °F 44.3 °F 32.0 °F 57% 29.92 in 10.0 mi SW 4.6 mph - N/A   Scattered Clouds
6:35 PM 46.4 °F 44.3 °F 32.0 °F 57% 29.92 in 10.0 mi SSW 4.6 mph - N/A   Clear
6:55 PM 44.6 °F 42.2 °F 32.0 °F 61% 29.92 in 10.0 mi SSW 4.6 mph - N/A   Mostly Cloudy
7:15 PM 42.8 °F 40.1 °F 32.0 °F 66% 29.92 in 10.0 mi SSW 4.6 mph - N/A   Overcast
7:35 PM 41.0 °F 39.0 °F 32.0 °F 70% 29.92 in 10.0 mi SSW 3.5 mph - N/A   Mostly Cloudy
7:55 PM 41.0 °F 37.1 °F 32.0 °F 70% 29.92 in 10.0 mi SSW 5.8 mph - N/A   Mostly Cloudy
8:15 PM 39.2 °F 35.9 °F 32.0 °F 75% 29.92 in 10.0 mi South 4.6 mph - N/A   Overcast
8:35 PM 39.2 °F 35.0 °F 32.0 °F 75% 29.92 in 10.0 mi SSW 5.8 mph - N/A   Mostly Cloudy
8:55 PM 39.2 °F 35.9 °F 32.0 °F 75% 29.92 in 10.0 mi South 4.6 mph - N/A   Mostly Cloudy
9:15 PM 39.2 °F 35.0 °F 32.0 °F 75% 29.91 in 10.0 mi SSW 5.8 mph - N/A   Mostly Cloudy
9:35 PM 39.2 °F 35.0 °F 32.0 °F 75% 29.91 in 10.0 mi SSW 5.8 mph - N/A   Mostly Cloudy
9:55 PM 39.2 °F 35.9 °F 32.0 °F 75% 29.91 in 10.0 mi SSW 4.6 mph - N/A   Overcast
10:15 PM 37.4 °F 32.8 °F 32.0 °F 81% 29.91 in 10.0 mi SSW 5.8 mph - N/A   Overcast
10:35 PM 37.4 °F 33.8 °F 32.0 °F 81% 29.92 in 10.0 mi SSW 4.6 mph - N/A   Overcast
10:55 PM 35.6 °F 32.8 °F 33.8 °F 93% 29.92 in 10.0 mi SE 3.5 mph - N/A   Mostly Cloudy
11:15 PM 35.6 °F 32.8 °F 32.0 °F 87% 29.92 in 10.0 mi SSE 3.5 mph - N/A   Mostly Cloudy
11:35 PM 37.4 °F 34.9 °F 33.8 °F 87% 29.91 in 10.0 mi SSE 3.5 mph - N/A   Overcast
11:55 PM 37.4 °F 34.9 °F 33.8 °F 87% 29.91 in 10.0 mi SSE 3.5 mph - N/A   Overcast